Impacts TAF Board INFO
FOR SITUATIONAL AWARENESS. NOT TO BE USED FOR FLIGHT PLANNING PURPOSES.
IDs:

KPHL - Philadelphia Intl, PA, US

Issued at 2346 UTC 14 Dec 2017
Updated at 0243 UTC 15 Dec 2017
Potential Impact None Slight Moderate High
Time<<16/03Z 16/04Z 16/05Z 16/06Z 16/07Z 16/08Z 16/09Z 16/10Z 16/11Z 16/12Z 16/13Z 16/14Z 16/15Z
Type PRVL PRVL PRVL
VIS >6 >6 >6
CIG -- -- --
Cover SCT SCT SCT
FltCat VFR VFR VFR
WX -- -- --
WDir 250 250 250
WSpd 7 7 7
WGst -- -- --

Raw TAF
KPHL 142346Z 1500/1606 33005KT P6SM SCT200
  FM151100 VRB02KT P6SM SCT140
  FM151800 VRB03KT P6SM OVC030
  TEMPO 1519/1523 5SM -SN BR
  FM152300 VRB03KT P6SM BKN045
  FM160300 25007KT P6SM SCT240


METAR Board
Radar Display
Forecast Discussion

FOR SITUATIONAL AWARENESS. NOT TO BE USED FOR FLIGHT PLANNING PURPOSES.